createdAt,value
2022-09-14T00:00:58.539Z,1.40
2022-09-14T00:01:47.847Z,1.90
2022-09-14T00:02:47.883Z,1.70
2022-09-14T00:03:47.763Z,1.90
2022-09-14T00:04:47.718Z,1.60
2022-09-14T00:05:47.695Z,2.00
2022-09-14T00:06:47.691Z,2.20
2022-09-14T00:07:47.674Z,1.60
2022-09-14T00:08:47.668Z,1.70
2022-09-14T00:09:47.667Z,2.20
2022-09-14T00:10:47.651Z,2.20
2022-09-14T00:11:47.649Z,1.80
2022-09-14T00:12:47.631Z,1.50
2022-09-14T00:13:47.764Z,1.80
2022-09-14T00:14:47.620Z,2.10
2022-09-14T00:15:47.593Z,1.90
2022-09-14T00:16:47.689Z,1.90
2022-09-14T00:17:47.581Z,1.50
2022-09-14T00:18:47.567Z,1.90
2022-09-14T00:19:47.568Z,2.30
2022-09-14T00:20:47.559Z,1.90
2022-09-14T00:21:47.532Z,1.80
2022-09-14T00:22:47.529Z,2.10
2022-09-14T00:23:47.519Z,2.00
2022-09-14T00:24:47.520Z,1.40
2022-09-14T00:25:47.496Z,2.20
2022-09-14T00:26:47.486Z,2.90
2022-09-14T00:27:47.475Z,2.00
2022-09-14T00:28:47.609Z,2.50
2022-09-14T00:29:47.467Z,2.20
2022-09-14T00:30:47.448Z,2.10
2022-09-14T00:31:47.520Z,2.30
2022-09-14T00:32:53.434Z,3.10
2022-09-14T00:33:47.412Z,2.40
2022-09-14T00:34:48.034Z,2.40
2022-09-14T00:35:47.393Z,2.80
2022-09-14T00:36:47.460Z,2.20
2022-09-14T00:37:47.378Z,2.50
2022-09-14T00:38:47.384Z,2.00
2022-09-14T00:39:47.427Z,2.10
2022-09-14T00:40:47.348Z,2.20
2022-09-14T00:41:47.333Z,2.40
2022-09-14T00:42:47.326Z,2.40
2022-09-14T00:43:47.403Z,2.30
2022-09-14T00:44:47.306Z,2.70
2022-09-14T00:45:47.360Z,2.90
2022-09-14T00:46:47.287Z,2.40
2022-09-14T00:47:47.275Z,2.50
2022-09-14T00:48:47.281Z,3.00
2022-09-14T00:49:47.257Z,2.90
2022-09-14T00:50:47.247Z,2.80
2022-09-14T00:51:47.234Z,2.60
2022-09-14T00:52:47.226Z,3.40
2022-09-14T00:53:47.229Z,3.30
2022-09-14T00:54:47.206Z,3.50
2022-09-14T00:55:47.195Z,2.90
2022-09-14T00:56:47.185Z,3.00
2022-09-14T00:57:47.175Z,3.30
2022-09-14T00:58:47.290Z,2.60
2022-09-14T00:59:47.153Z,3.50
2022-09-14T01:00:47.229Z,3.10
2022-09-14T01:01:47.230Z,3.60
2022-09-14T01:02:47.134Z,3.30
2022-09-14T01:03:47.124Z,2.50
2022-09-14T01:04:47.107Z,2.70
2022-09-14T01:05:47.094Z,2.80
2022-09-14T01:06:47.087Z,2.70
2022-09-14T01:07:47.071Z,2.80
2022-09-14T01:08:47.288Z,2.90
2022-09-14T01:09:47.052Z,2.50
2022-09-14T01:10:47.046Z,2.20
2022-09-14T01:11:51.371Z,2.50
2022-09-14T01:12:47.034Z,2.40
2022-09-14T01:13:47.013Z,2.60
2022-09-14T01:14:47.022Z,2.10
2022-09-14T01:15:46.994Z,2.60
2022-09-14T01:16:47.008Z,2.40
2022-09-14T01:17:46.973Z,2.20
2022-09-14T01:18:47.094Z,2.70
2022-09-14T01:19:46.950Z,3.20
2022-09-14T01:20:46.946Z,3.10
2022-09-14T01:21:46.931Z,2.20
2022-09-14T01:22:46.928Z,2.60
2022-09-14T01:23:46.927Z,2.70
2022-09-14T01:24:46.906Z,2.70
2022-09-14T01:25:46.893Z,2.60
2022-09-14T01:26:46.887Z,2.50
2022-09-14T01:27:46.872Z,2.20
2022-09-14T01:28:46.880Z,2.50
2022-09-14T01:29:46.856Z,1.90
2022-09-14T01:30:46.848Z,2.00
2022-09-14T01:31:46.947Z,1.90
2022-09-14T01:32:46.831Z,2.30
2022-09-14T01:33:46.899Z,2.00
2022-09-14T01:34:46.808Z,2.00
2022-09-14T01:35:46.792Z,2.20
2022-09-14T01:36:46.786Z,2.10
2022-09-14T01:37:46.771Z,2.30
2022-09-14T01:38:46.826Z,2.10
2022-09-14T01:39:46.797Z,1.90
2022-09-14T01:40:46.746Z,1.90
2022-09-14T01:41:46.732Z,2.30
2022-09-14T01:42:46.741Z,2.40
2022-09-14T01:43:46.727Z,2.20
2022-09-14T01:44:46.705Z,1.70
2022-09-14T01:45:46.858Z,1.80
2022-09-14T01:46:46.688Z,1.60
2022-09-14T01:47:46.711Z,2.00
2022-09-14T01:48:46.751Z,2.70
2022-09-14T01:49:46.662Z,1.70
2022-09-14T01:50:46.656Z,2.10
2022-09-14T01:51:46.659Z,2.10
2022-09-14T01:52:46.636Z,1.80
2022-09-14T01:53:46.632Z,1.50
2022-09-14T01:54:46.607Z,2.10
2022-09-14T01:55:46.592Z,1.80
2022-09-14T01:56:46.590Z,1.70
2022-09-14T01:57:46.574Z,2.20
2022-09-14T01:58:46.580Z,1.90
2022-09-14T01:59:46.552Z,2.30
2022-09-14T02:00:46.569Z,2.20
2022-09-14T02:01:50.343Z,1.70
2022-09-14T02:02:46.535Z,1.90
2022-09-14T02:03:46.530Z,1.80
2022-09-14T02:04:46.513Z,1.70
2022-09-14T02:05:46.493Z,1.90
2022-09-14T02:06:46.486Z,1.70
2022-09-14T02:07:46.472Z,2.10
2022-09-14T02:08:46.486Z,1.80
2022-09-14T02:09:46.453Z,1.50
2022-09-14T02:10:46.449Z,1.90
2022-09-14T02:11:46.433Z,1.60
2022-09-14T02:12:46.428Z,1.40
2022-09-14T02:13:46.426Z,1.50
2022-09-14T02:14:46.407Z,1.50
2022-09-14T02:15:46.391Z,1.70
2022-09-14T02:16:46.571Z,1.60
2022-09-14T02:17:46.373Z,1.40
2022-09-14T02:18:46.378Z,1.50
2022-09-14T02:19:46.352Z,1.70
2022-09-14T02:20:46.351Z,1.90
2022-09-14T02:21:46.332Z,1.50
2022-09-14T02:22:46.331Z,1.70
2022-09-14T02:23:46.328Z,1.20
2022-09-14T02:24:46.308Z,2.00
2022-09-14T02:25:46.295Z,1.60
2022-09-14T02:26:46.288Z,1.50
2022-09-14T02:27:46.274Z,1.80
2022-09-14T02:28:46.292Z,1.60
2022-09-14T02:29:46.260Z,1.50
2022-09-14T02:30:46.251Z,1.50
2022-09-14T02:31:46.278Z,1.50
2022-09-14T02:32:46.227Z,1.70
2022-09-14T02:33:46.233Z,1.30
2022-09-14T02:34:46.211Z,1.50
2022-09-14T02:35:46.194Z,1.70
2022-09-14T02:36:46.190Z,1.40
2022-09-14T02:37:46.172Z,1.50
2022-09-14T02:38:46.187Z,1.70
2022-09-14T02:39:46.256Z,1.30
2022-09-14T02:40:46.149Z,1.50
2022-09-14T02:41:46.134Z,1.50
2022-09-14T02:42:46.135Z,1.40
2022-09-14T02:43:46.129Z,1.30
2022-09-14T02:44:46.109Z,1.70
2022-09-14T02:45:46.093Z,1.40
2022-09-14T02:46:46.176Z,1.40
2022-09-14T02:47:46.074Z,1.60
2022-09-14T02:48:46.088Z,1.30
2022-09-14T02:49:46.099Z,1.60
2022-09-14T02:50:46.050Z,1.70
2022-09-14T02:51:46.037Z,1.70
2022-09-14T02:52:46.028Z,1.70
2022-09-14T02:53:46.034Z,1.60
2022-09-14T02:54:46.008Z,1.40
2022-09-14T02:55:46.008Z,1.50
2022-09-14T02:56:45.983Z,1.30
2022-09-14T02:57:45.980Z,1.60
2022-09-14T02:58:46.031Z,1.90
2022-09-14T02:59:45.960Z,1.20
2022-09-14T03:00:46.073Z,1.40
2022-09-14T03:01:45.999Z,1.20
2022-09-14T03:02:45.932Z,1.70
2022-09-14T03:03:45.930Z,1.60
2022-09-14T03:04:45.903Z,1.40
2022-09-14T03:05:45.901Z,1.60
2022-09-14T03:06:45.884Z,1.20
2022-09-14T03:07:45.879Z,1.50
2022-09-14T03:08:45.876Z,1.30
2022-09-14T03:09:45.856Z,1.30
2022-09-14T03:10:45.843Z,1.50
2022-09-14T03:11:45.840Z,1.50
2022-09-14T03:12:45.828Z,1.40
2022-09-14T03:13:45.827Z,1.50
2022-09-14T03:14:45.803Z,1.20
2022-09-14T03:15:45.867Z,1.20
2022-09-14T03:16:45.785Z,1.30
2022-09-14T03:17:45.777Z,1.40
2022-09-14T03:18:45.793Z,1.60
2022-09-14T03:19:45.759Z,1.30
2022-09-14T03:20:45.746Z,1.60
2022-09-14T03:21:45.746Z,1.40
2022-09-14T03:22:45.724Z,1.40
2022-09-14T03:23:45.731Z,1.40
2022-09-14T03:24:45.723Z,1.50
2022-09-14T03:25:45.702Z,1.70
2022-09-14T03:26:45.684Z,1.60
2022-09-14T03:27:45.680Z,1.30
2022-09-14T03:28:45.676Z,1.50
2022-09-14T03:29:45.660Z,1.50
2022-09-14T03:30:45.663Z,1.30
2022-09-14T03:31:45.709Z,1.30
2022-09-14T03:32:45.626Z,1.30
2022-09-14T03:33:45.638Z,1.30
2022-09-14T03:34:45.613Z,1.20
2022-09-14T03:35:45.598Z,1.30
2022-09-14T03:36:45.589Z,1.30
2022-09-14T03:37:45.580Z,1.40
2022-09-14T03:38:45.578Z,1.40
2022-09-14T03:39:45.595Z,1.20
2022-09-14T03:40:45.548Z,1.50
2022-09-14T03:41:45.537Z,1.20
2022-09-14T03:42:45.525Z,1.20
2022-09-14T03:43:45.533Z,1.10
2022-09-14T03:44:45.506Z,1.20
2022-09-14T03:45:45.508Z,1.20
2022-09-14T03:46:45.598Z,1.40
2022-09-14T03:47:45.482Z,1.40
2022-09-14T03:48:45.481Z,1.50
2022-09-14T03:49:45.460Z,1.20
2022-09-14T03:50:45.450Z,1.10
2022-09-14T03:51:45.444Z,1.40
2022-09-14T03:52:45.428Z,1.10
2022-09-14T03:53:45.436Z,1.00
2022-09-14T03:54:45.404Z,1.20
2022-09-14T03:55:45.400Z,1.40
2022-09-14T03:56:45.407Z,1.40
2022-09-14T03:57:45.379Z,1.20
2022-09-14T03:58:45.385Z,1.10
2022-09-14T03:59:45.366Z,1.20
2022-09-14T04:00:45.343Z,1.20
2022-09-14T04:01:45.462Z,1.10
2022-09-14T04:02:45.375Z,0.90
2022-09-14T04:03:45.331Z,1.40
2022-09-14T04:04:45.306Z,1.40
2022-09-14T04:05:45.298Z,1.10
2022-09-14T04:06:45.296Z,1.10
2022-09-14T04:07:45.279Z,1.00
2022-09-14T04:08:45.276Z,1.50
2022-09-14T04:09:45.259Z,1.80
2022-09-14T04:10:45.244Z,1.30
2022-09-14T04:11:45.238Z,1.10
2022-09-14T04:12:45.244Z,1.40
2022-09-14T04:13:45.234Z,1.10
2022-09-14T04:14:45.203Z,1.00
2022-09-14T04:15:45.256Z,1.40
2022-09-14T04:16:45.186Z,1.40
2022-09-14T04:17:45.179Z,1.20
2022-09-14T04:18:45.181Z,1.30
2022-09-14T04:19:45.159Z,1.20
2022-09-14T04:20:45.145Z,1.30
2022-09-14T04:21:45.142Z,1.00
2022-09-14T04:22:45.124Z,1.30
2022-09-14T04:24:45.108Z,1.30
2022-09-14T04:25:45.100Z,0.90
2022-09-14T04:26:45.088Z,1.10
2022-09-14T04:27:55.034Z,1.10
2022-09-14T04:28:45.119Z,1.10
2022-09-14T04:29:45.062Z,1.80
2022-09-14T04:30:45.046Z,1.30
2022-09-14T04:31:45.147Z,1.40
2022-09-14T04:32:45.044Z,1.10
2022-09-14T04:33:45.063Z,1.10
2022-09-14T04:34:45.005Z,1.30
2022-09-14T04:35:45.005Z,1.30
2022-09-14T04:36:44.988Z,1.40
2022-09-14T04:37:44.980Z,1.30
2022-09-14T04:38:44.964Z,1.10
2022-09-14T04:39:45.050Z,1.00
2022-09-14T04:40:44.947Z,1.20
2022-09-14T04:41:44.948Z,1.40
2022-09-14T04:42:44.929Z,1.50
2022-09-14T04:43:44.932Z,1.50
2022-09-14T04:44:44.906Z,1.20
2022-09-14T04:45:44.899Z,1.30
2022-09-14T04:46:46.900Z,0.90
2022-09-14T04:47:44.886Z,1.00
2022-09-14T04:48:44.889Z,1.30
2022-09-14T04:49:44.860Z,1.10
2022-09-14T04:50:44.844Z,1.20
2022-09-14T04:51:44.846Z,1.10
2022-09-14T04:52:44.825Z,1.00
2022-09-14T04:53:44.820Z,1.20
2022-09-14T04:54:44.822Z,1.30
2022-09-14T04:55:44.800Z,1.40
2022-09-14T04:56:44.787Z,1.30
2022-09-14T04:57:44.781Z,1.40
2022-09-14T04:58:47.230Z,1.40
2022-09-14T04:59:44.764Z,1.20
2022-09-14T05:00:44.748Z,1.20
2022-09-14T05:01:44.824Z,1.40
2022-09-14T05:02:44.764Z,1.40
2022-09-14T05:03:44.734Z,1.30
2022-09-14T05:04:44.705Z,1.30
2022-09-14T05:05:44.985Z,1.00
2022-09-14T05:06:44.687Z,1.20
2022-09-14T05:07:44.690Z,1.30
2022-09-14T05:08:44.682Z,1.20
2022-09-14T05:09:44.660Z,1.00
2022-09-14T05:10:44.649Z,1.20
2022-09-14T05:11:44.645Z,1.20
2022-09-14T05:12:44.626Z,1.40
2022-09-14T05:13:49.517Z,1.10
2022-09-14T05:14:44.612Z,1.20
2022-09-14T05:15:44.668Z,1.10
2022-09-14T05:16:44.584Z,1.10
2022-09-14T05:17:44.583Z,1.10
2022-09-14T05:18:44.583Z,1.20
2022-09-14T05:19:44.558Z,1.60
2022-09-14T05:20:44.545Z,1.10
2022-09-14T05:21:44.542Z,1.10
2022-09-14T05:22:44.536Z,1.10
2022-09-14T05:23:44.533Z,1.40
2022-09-14T05:24:44.508Z,1.00
2022-09-14T05:25:44.504Z,1.10
2022-09-14T05:26:44.486Z,1.20
2022-09-14T05:27:44.484Z,1.00
2022-09-14T05:28:44.482Z,1.30
2022-09-14T05:29:44.463Z,1.10
2022-09-14T05:30:44.468Z,1.20
2022-09-14T05:31:44.440Z,1.10
2022-09-14T05:32:44.429Z,1.20
2022-09-14T05:33:44.442Z,1.10
2022-09-14T05:34:44.408Z,1.20
2022-09-14T05:35:44.401Z,1.10
2022-09-14T05:36:44.384Z,1.30
2022-09-14T05:37:44.379Z,1.20
2022-09-14T05:38:44.402Z,1.10
2022-09-14T05:39:44.398Z,1.40
2022-09-14T05:40:44.345Z,1.50
2022-09-14T05:41:44.341Z,1.40
2022-09-14T05:42:44.324Z,1.20
2022-09-14T05:43:44.334Z,1.10
2022-09-14T05:44:44.304Z,1.30
2022-09-14T05:45:44.311Z,1.20
2022-09-14T05:46:44.326Z,1.20
2022-09-14T05:47:44.281Z,1.30
2022-09-14T05:48:44.447Z,1.10
2022-09-14T05:49:44.262Z,1.10
2022-09-14T05:50:44.248Z,1.40
2022-09-14T05:51:44.240Z,1.10
2022-09-14T05:52:44.225Z,1.20
2022-09-14T05:53:44.234Z,1.20
2022-09-14T05:54:44.229Z,1.10
2022-09-14T05:55:44.201Z,0.90
2022-09-14T05:56:44.185Z,1.40
2022-09-14T05:57:44.180Z,0.90
2022-09-14T05:58:44.180Z,1.00
2022-09-14T05:59:44.160Z,1.00
2022-09-14T06:00:44.145Z,1.10
2022-09-14T06:01:44.181Z,1.20
2022-09-14T06:02:44.129Z,1.10
2022-09-14T06:03:44.162Z,1.10
2022-09-14T06:04:44.113Z,1.10
2022-09-14T06:05:44.211Z,1.20
2022-09-14T06:06:55.966Z,1.10
2022-09-14T06:07:44.086Z,1.20
2022-09-14T06:08:44.084Z,1.10
2022-09-14T06:09:44.061Z,0.90
2022-09-14T06:10:44.047Z,1.30
2022-09-14T06:11:44.039Z,1.60
2022-09-14T06:12:44.026Z,1.20
2022-09-14T06:13:44.179Z,1.10
2022-09-14T06:14:44.007Z,1.10
2022-09-14T06:15:44.004Z,1.00
2022-09-14T06:16:43.988Z,1.10
2022-09-14T06:17:43.994Z,1.20
2022-09-14T06:18:43.984Z,1.20
2022-09-14T06:19:43.961Z,1.30
2022-09-14T06:20:43.947Z,1.20
2022-09-14T06:21:43.945Z,1.30
2022-09-14T06:22:43.928Z,1.10
2022-09-14T06:23:44.042Z,1.20
2022-09-14T06:24:43.909Z,1.10
2022-09-14T06:25:43.906Z,1.50
2022-09-14T06:26:43.885Z,1.30
2022-09-14T06:27:43.881Z,0.90
2022-09-14T06:28:43.880Z,1.00
2022-09-14T06:29:43.865Z,1.10
2022-09-14T06:30:43.849Z,1.00
2022-09-14T06:31:43.843Z,1.30
2022-09-14T06:32:49.829Z,1.10
2022-09-14T06:33:43.834Z,1.20
2022-09-14T06:34:44.487Z,1.30
2022-09-14T06:35:43.799Z,1.20
2022-09-14T06:36:43.784Z,1.40
2022-09-14T06:37:43.784Z,1.50
2022-09-14T06:38:43.837Z,1.20
2022-09-14T06:39:43.798Z,1.20
2022-09-14T06:40:43.747Z,1.30
2022-09-14T06:41:43.743Z,1.00
2022-09-14T06:42:43.727Z,1.20
2022-09-14T06:43:43.737Z,1.10
2022-09-14T06:44:43.706Z,1.70
2022-09-14T06:45:43.703Z,1.50
2022-09-14T06:46:47.476Z,1.30
2022-09-14T06:47:43.681Z,1.20
2022-09-14T06:48:43.682Z,1.40
2022-09-14T06:49:43.662Z,1.80
2022-09-14T06:50:43.648Z,1.20
2022-09-14T06:51:43.643Z,2.00
2022-09-14T06:52:43.627Z,1.30
2022-09-14T06:53:43.757Z,1.60
2022-09-14T06:54:43.611Z,1.00
2022-09-14T06:55:43.603Z,1.20
2022-09-14T06:56:43.588Z,1.50
2022-09-14T06:57:43.582Z,1.30
2022-09-14T06:58:43.588Z,1.40
2022-09-14T06:59:43.562Z,1.60
2022-09-14T07:00:43.547Z,1.40
2022-09-14T07:01:43.541Z,1.50
2022-09-14T07:02:43.570Z,1.40
2022-09-14T07:03:43.534Z,1.30
2022-09-14T07:04:43.505Z,1.40
2022-09-14T07:05:43.502Z,1.50
2022-09-14T07:06:43.509Z,1.40
2022-09-14T07:07:43.478Z,1.20
2022-09-14T07:08:43.553Z,1.50
2022-09-14T07:09:43.456Z,1.60
2022-09-14T07:10:43.448Z,1.20
2022-09-14T07:11:43.436Z,1.50
2022-09-14T07:12:43.430Z,1.20
2022-09-14T07:13:43.432Z,1.20
2022-09-14T07:14:43.409Z,1.50
2022-09-14T07:15:43.494Z,1.40
2022-09-14T07:16:43.391Z,1.10
2022-09-14T07:17:43.378Z,1.30
2022-09-14T07:18:43.440Z,0.90
2022-09-14T07:19:43.358Z,1.10
2022-09-14T07:20:43.352Z,1.30
2022-09-14T07:21:43.338Z,1.10
2022-09-14T07:22:43.333Z,1.10
2022-09-14T07:23:43.329Z,1.00
2022-09-14T07:24:43.312Z,1.30
2022-09-14T07:25:43.297Z,1.40
2022-09-14T07:26:43.298Z,1.00
2022-09-14T07:27:43.281Z,1.30
2022-09-14T07:28:43.288Z,1.40
2022-09-14T07:29:43.258Z,1.20
2022-09-14T07:30:43.268Z,1.50
2022-09-14T07:31:43.238Z,1.70
2022-09-14T07:32:43.232Z,1.20
2022-09-14T07:33:43.228Z,1.30
2022-09-14T07:34:43.213Z,1.30
2022-09-14T07:35:43.196Z,1.60
2022-09-14T07:36:43.193Z,1.20
2022-09-14T07:37:43.178Z,1.20
2022-09-14T07:38:58.663Z,1.20
2022-09-14T07:39:43.204Z,1.30
2022-09-14T07:40:43.153Z,1.30
2022-09-14T07:41:43.136Z,1.40
2022-09-14T07:42:43.129Z,1.00
2022-09-14T07:43:43.128Z,1.30
2022-09-14T07:44:43.113Z,1.00
2022-09-14T07:45:43.134Z,1.20
2022-09-14T07:46:43.094Z,1.10
2022-09-14T07:47:43.078Z,0.90
2022-09-14T07:48:43.087Z,1.00
2022-09-14T07:49:43.057Z,0.90
2022-09-14T07:50:43.051Z,1.20
2022-09-14T07:51:43.036Z,1.20
2022-09-14T07:52:43.032Z,1.00
2022-09-14T07:53:43.031Z,1.00
2022-09-14T07:54:43.011Z,1.30
2022-09-14T07:55:42.996Z,1.20
2022-09-14T07:56:42.994Z,1.30
2022-09-14T07:57:55.569Z,1.10
2022-09-14T07:58:42.993Z,1.10
2022-09-14T07:59:42.964Z,1.10
2022-09-14T08:00:42.948Z,1.10
2022-09-14T08:01:43.025Z,1.10
2022-09-14T08:02:43.006Z,1.20
2022-09-14T08:03:42.931Z,1.00
2022-09-14T08:04:42.912Z,1.00
2022-09-14T08:05:42.896Z,1.00
2022-09-14T08:06:42.892Z,1.30
2022-09-14T08:07:42.877Z,1.00
2022-09-14T08:08:42.885Z,1.00
2022-09-14T08:09:42.856Z,1.20
2022-09-14T08:10:42.850Z,0.90
2022-09-14T08:11:42.847Z,0.90
2022-09-14T08:12:42.832Z,1.00
2022-09-14T08:13:42.833Z,1.30
2022-09-14T08:14:42.811Z,1.20
2022-09-14T08:15:42.797Z,0.90
2022-09-14T08:16:42.853Z,0.80
2022-09-14T08:17:42.778Z,1.00
2022-09-14T08:18:42.791Z,1.20
2022-09-14T08:19:42.757Z,1.10
2022-09-14T08:20:42.806Z,1.00
2022-09-14T08:21:46.476Z,1.20
2022-09-14T08:22:42.731Z,1.10
2022-09-14T08:23:42.731Z,1.30
2022-09-14T08:24:42.712Z,1.30
2022-09-14T08:25:42.700Z,1.40
2022-09-14T08:26:42.693Z,1.10
2022-09-14T08:27:42.678Z,1.10
2022-09-14T08:28:42.688Z,1.40
2022-09-14T08:29:42.655Z,1.20
2022-09-14T08:30:42.652Z,1.30
2022-09-14T08:31:42.736Z,1.40
2022-09-14T08:32:42.632Z,1.30
2022-09-14T08:33:42.629Z,1.20
2022-09-14T08:34:42.611Z,1.50
2022-09-14T08:35:57.348Z,1.50
2022-09-14T08:36:42.598Z,1.30
2022-09-14T08:37:42.580Z,1.70
2022-09-14T08:38:42.584Z,1.10
2022-09-14T08:39:42.633Z,1.60
2022-09-14T08:40:42.552Z,1.60
2022-09-14T08:41:42.536Z,1.70
2022-09-14T08:42:42.533Z,1.60
2022-09-14T08:43:42.535Z,1.10
2022-09-14T08:44:42.512Z,1.60
2022-09-14T08:45:42.527Z,1.20
2022-09-14T08:46:42.490Z,1.10
2022-09-14T08:47:42.478Z,1.70
2022-09-14T08:48:42.485Z,1.40
2022-09-14T08:49:42.456Z,1.40
2022-09-14T08:50:42.452Z,1.40
2022-09-14T08:51:42.439Z,1.60
2022-09-14T08:52:42.432Z,1.30
2022-09-14T08:53:42.432Z,1.30
2022-09-14T08:54:42.416Z,1.20
2022-09-14T08:55:42.399Z,1.30
2022-09-14T08:56:42.391Z,1.40
2022-09-14T08:57:42.379Z,1.40
2022-09-14T08:58:46.435Z,1.30
2022-09-14T08:59:42.363Z,1.20
2022-09-14T09:00:42.405Z,1.30
2022-09-14T09:01:42.335Z,1.20
2022-09-14T09:02:42.336Z,1.20
2022-09-14T09:03:42.392Z,0.90
2022-09-14T09:04:42.311Z,1.20
2022-09-14T09:05:42.320Z,1.10
2022-09-14T09:06:42.290Z,1.10
2022-09-14T09:07:42.280Z,1.10
2022-09-14T09:08:42.320Z,1.30
2022-09-14T09:09:42.256Z,1.00
2022-09-14T09:10:42.251Z,0.90
2022-09-14T09:11:42.238Z,1.20
2022-09-14T09:12:42.234Z,1.10
2022-09-14T09:13:42.233Z,1.40
2022-09-14T09:14:42.211Z,1.10
2022-09-14T09:15:42.197Z,1.20
2022-09-14T09:16:42.285Z,1.10
2022-09-14T09:17:42.179Z,1.10
2022-09-14T09:18:42.186Z,1.00
2022-09-14T09:19:42.157Z,1.00
2022-09-14T09:20:42.154Z,1.20
2022-09-14T09:21:42.137Z,1.30
2022-09-14T09:22:42.132Z,1.50
2022-09-14T09:23:42.135Z,1.00
2022-09-14T09:24:42.114Z,1.30
2022-09-14T09:25:42.099Z,1.70
2022-09-14T09:26:42.093Z,1.60
2022-09-14T09:27:42.078Z,1.40
2022-09-14T09:28:42.083Z,1.50
2022-09-14T09:29:42.056Z,1.50
2022-09-14T09:30:42.051Z,1.80
2022-09-14T09:31:42.086Z,1.70
2022-09-14T09:32:42.032Z,1.90
2022-09-14T09:33:42.032Z,2.00
2022-09-14T09:34:42.012Z,1.80
2022-09-14T09:35:42.002Z,1.20
2022-09-14T09:36:41.992Z,1.70
2022-09-14T09:37:41.979Z,1.70
2022-09-14T09:38:41.983Z,1.50
2022-09-14T09:39:42.131Z,1.80
2022-09-14T09:40:41.954Z,2.10
2022-09-14T09:41:41.938Z,1.60
2022-09-14T09:42:41.934Z,1.60
2022-09-14T09:43:49.376Z,2.20
2022-09-14T09:44:41.918Z,2.20
2022-09-14T09:45:41.899Z,2.20
2022-09-14T09:46:41.961Z,1.90
2022-09-14T09:47:41.882Z,1.50
2022-09-14T09:48:41.885Z,1.90
2022-09-14T09:49:41.858Z,1.60
2022-09-14T09:50:41.854Z,1.80
2022-09-14T09:51:41.841Z,2.00
2022-09-14T09:52:41.833Z,1.40
2022-09-14T09:53:41.831Z,1.90
2022-09-14T09:54:41.815Z,1.60
2022-09-14T09:55:41.797Z,1.40
2022-09-14T09:56:41.794Z,1.40
2022-09-14T09:57:41.788Z,1.80
2022-09-14T09:58:41.807Z,1.90
2022-09-14T09:59:41.793Z,1.90
2022-09-14T10:00:41.845Z,1.60
2022-09-14T10:01:41.870Z,1.70
2022-09-14T10:02:41.733Z,1.40
2022-09-14T10:03:41.737Z,1.60
2022-09-14T10:04:41.735Z,1.80
2022-09-14T10:05:41.700Z,1.70
2022-09-14T10:06:41.694Z,1.60
2022-09-14T10:07:41.680Z,1.60
2022-09-14T10:08:41.703Z,1.80
2022-09-14T10:09:41.658Z,1.90
2022-09-14T10:10:41.655Z,1.50
2022-09-14T10:11:41.642Z,1.50
2022-09-14T10:12:41.647Z,1.40
2022-09-14T10:13:41.619Z,1.50
2022-09-14T10:14:41.616Z,1.40
2022-09-14T10:15:41.665Z,2.00
2022-09-14T10:16:41.594Z,1.70
2022-09-14T10:17:41.592Z,1.70
2022-09-14T10:18:44.456Z,1.50
2022-09-14T10:19:41.568Z,1.40
2022-09-14T10:20:41.551Z,1.40
2022-09-14T10:21:41.539Z,1.70
2022-09-14T10:22:41.553Z,1.30
2022-09-14T10:23:41.524Z,1.20
2022-09-14T10:24:41.513Z,1.10
2022-09-14T10:25:41.499Z,1.60
2022-09-14T10:26:41.495Z,1.00
2022-09-14T10:27:41.494Z,1.40
2022-09-14T10:28:41.473Z,2.00
2022-09-14T10:29:41.461Z,1.10
2022-09-14T10:30:41.452Z,1.40
2022-09-14T10:31:41.511Z,1.60
2022-09-14T10:32:41.444Z,1.60
2022-09-14T10:33:41.419Z,1.20
2022-09-14T10:34:41.413Z,1.30
2022-09-14T10:35:41.405Z,1.40
2022-09-14T10:36:41.393Z,1.40
2022-09-14T10:37:41.389Z,1.20
2022-09-14T10:38:41.466Z,1.20
2022-09-14T10:39:41.361Z,1.30
2022-09-14T10:40:41.351Z,1.40
2022-09-14T10:41:41.345Z,1.30
2022-09-14T10:42:41.350Z,1.60
2022-09-14T10:43:41.321Z,0.90
2022-09-14T10:44:41.317Z,1.20
2022-09-14T10:45:41.303Z,1.30
2022-09-14T10:46:41.341Z,1.50
2022-09-14T10:47:41.296Z,1.30
2022-09-14T10:48:41.272Z,1.30
2022-09-14T10:49:41.261Z,1.30
2022-09-14T10:50:41.255Z,1.20
2022-09-14T10:51:41.240Z,1.50
2022-09-14T10:52:41.247Z,1.20
2022-09-14T10:53:41.221Z,1.50
2022-09-14T10:54:41.225Z,1.40
2022-09-14T10:55:41.199Z,1.20
2022-09-14T10:56:41.209Z,1.60
2022-09-14T10:57:41.184Z,1.30
2022-09-14T10:58:41.189Z,1.10
2022-09-14T10:59:41.163Z,1.10
2022-09-14T11:00:41.156Z,1.30
2022-09-14T11:01:41.314Z,1.20
2022-09-14T11:02:41.329Z,1.30
2022-09-14T11:03:45.720Z,1.20
2022-09-14T11:04:41.118Z,1.30
2022-09-14T11:05:41.100Z,1.10
2022-09-14T11:06:41.095Z,1.40
2022-09-14T11:07:41.090Z,1.20
2022-09-14T11:08:41.087Z,1.30
2022-09-14T11:09:41.060Z,1.20
2022-09-14T11:10:41.058Z,1.30
2022-09-14T11:11:41.047Z,1.40
2022-09-14T11:12:41.034Z,1.40
2022-09-14T11:13:41.032Z,1.30
2022-09-14T11:14:41.014Z,1.20
2022-09-14T11:15:41.089Z,1.20
2022-09-14T11:16:40.996Z,1.20
2022-09-14T11:17:40.981Z,1.90
2022-09-14T11:18:40.986Z,1.20
2022-09-14T11:19:40.961Z,1.30
2022-09-14T11:20:42.853Z,1.20
2022-09-14T11:21:40.943Z,1.30
2022-09-14T11:22:40.931Z,1.10
2022-09-14T11:23:40.946Z,1.30
2022-09-14T11:24:40.909Z,1.30
2022-09-14T11:25:40.903Z,0.90
2022-09-14T11:26:42.436Z,1.10
2022-09-14T11:27:40.886Z,1.20
2022-09-14T11:28:40.953Z,1.00
2022-09-14T11:29:40.865Z,1.10
2022-09-14T11:30:40.907Z,1.20
2022-09-14T11:31:40.845Z,0.90
2022-09-14T11:32:40.832Z,1.40
2022-09-14T11:33:40.839Z,1.30
2022-09-14T11:34:40.809Z,1.00
2022-09-14T11:35:40.810Z,1.40
2022-09-14T11:36:40.793Z,1.10
2022-09-14T11:37:40.784Z,1.20
2022-09-14T11:38:40.791Z,1.10
2022-09-14T11:39:40.767Z,1.00
2022-09-14T11:40:40.760Z,1.10
2022-09-14T11:41:40.746Z,1.00
2022-09-14T11:42:40.732Z,1.20
2022-09-14T11:43:40.734Z,1.10
2022-09-14T11:44:40.709Z,0.90
2022-09-14T11:45:40.705Z,1.10
2022-09-14T11:46:40.831Z,1.20
2022-09-14T11:47:40.686Z,1.20
2022-09-14T11:48:43.186Z,1.30
2022-09-14T11:49:40.666Z,1.10
2022-09-14T11:50:40.651Z,1.50
2022-09-14T11:51:40.647Z,1.10
2022-09-14T11:52:40.631Z,1.10
2022-09-14T11:53:40.636Z,1.20
2022-09-14T11:54:44.630Z,1.10
2022-09-14T11:55:40.610Z,1.20
2022-09-14T11:56:40.598Z,1.10
2022-09-14T11:57:40.585Z,1.50
2022-09-14T11:58:40.648Z,1.30
2022-09-14T11:59:40.566Z,1.10
2022-09-14T12:00:40.551Z,1.40
2022-09-14T12:01:40.548Z,1.50
2022-09-14T12:02:40.552Z,1.10
2022-09-14T12:03:40.603Z,1.50
2022-09-14T12:04:40.514Z,1.40
2022-09-14T12:05:40.506Z,1.30
2022-09-14T12:06:40.493Z,1.60
2022-09-14T12:07:40.488Z,1.30
2022-09-14T12:08:40.489Z,1.70
2022-09-14T12:09:40.469Z,1.60
2022-09-14T12:10:43.994Z,1.60
2022-09-14T12:11:40.456Z,1.50
2022-09-14T12:12:40.436Z,1.50
2022-09-14T12:13:40.566Z,1.20
2022-09-14T12:14:40.415Z,1.30
2022-09-14T12:15:40.500Z,1.30
2022-09-14T12:16:40.394Z,1.20
2022-09-14T12:17:41.160Z,1.10
2022-09-14T12:18:40.391Z,1.20
2022-09-14T12:19:40.367Z,1.30
2022-09-14T12:20:40.366Z,1.30
2022-09-14T12:21:40.352Z,1.10
2022-09-14T12:22:40.358Z,1.20
2022-09-14T12:23:40.493Z,1.10
2022-09-14T12:24:40.316Z,1.10
2022-09-14T12:25:40.311Z,1.20
2022-09-14T12:26:40.293Z,1.00
2022-09-14T12:27:40.297Z,1.60
2022-09-14T12:28:40.298Z,0.90
2022-09-14T12:29:40.293Z,1.10
2022-09-14T12:30:41.142Z,1.00
2022-09-14T12:31:40.317Z,1.00
2022-09-14T12:32:40.237Z,1.50
2022-09-14T12:33:46.245Z,1.20
2022-09-14T12:34:40.216Z,1.10
2022-09-14T12:35:40.211Z,1.30
2022-09-14T12:36:40.208Z,1.00
2022-09-14T12:37:40.541Z,1.10
2022-09-14T12:38:40.189Z,1.20
2022-09-14T12:39:40.170Z,1.00
2022-09-14T12:40:40.221Z,1.00
2022-09-14T12:41:40.201Z,1.30
2022-09-14T12:42:40.147Z,1.20
2022-09-14T12:43:40.185Z,1.30
2022-09-14T12:44:40.114Z,1.10
2022-09-14T12:45:40.113Z,1.10
2022-09-14T12:46:40.151Z,1.20
2022-09-14T12:47:40.093Z,1.30
2022-09-14T12:48:40.088Z,1.10
2022-09-14T12:49:40.071Z,1.20
2022-09-14T12:50:40.057Z,1.10
2022-09-14T12:51:40.050Z,1.30
2022-09-14T12:52:40.044Z,1.40
2022-09-14T12:53:40.055Z,1.30
2022-09-14T12:54:40.017Z,1.50
2022-09-14T12:55:40.007Z,1.80
2022-09-14T12:56:39.994Z,1.90
2022-09-14T12:57:39.990Z,1.70
2022-09-14T12:58:40.045Z,1.40
2022-09-14T12:59:39.981Z,2.10
2022-09-14T13:00:39.972Z,1.30
2022-09-14T13:01:40.071Z,1.10
2022-09-14T13:02:40.080Z,1.00
2022-09-14T13:03:39.946Z,1.10
2022-09-14T13:04:39.915Z,0.90
2022-09-14T13:05:39.917Z,0.90
2022-09-14T13:06:39.975Z,1.10
2022-09-14T13:07:39.889Z,1.30
2022-09-14T13:08:39.896Z,1.20
2022-09-14T13:09:39.870Z,1.40
2022-09-14T13:10:39.867Z,1.20
2022-09-14T13:11:39.852Z,1.20
2022-09-14T13:12:39.912Z,1.10
2022-09-14T13:13:39.868Z,1.00
2022-09-14T13:14:39.817Z,1.20
2022-09-14T13:15:39.863Z,0.90
2022-09-14T13:16:39.795Z,1.10
2022-09-14T13:17:39.791Z,1.00
2022-09-14T13:18:39.795Z,1.10
2022-09-14T13:19:39.789Z,1.10